Laranjeiras do Sul, Brazil
Current Conditions -  °F | °C
As of 12:00 PM on Friday 24 Oct 2014 (Local Time) from SBCA Reporting Station
Scattered Clouds Scattered Clouds  
Wind Chill: 82°   Ceiling: Unl
Heat Index: 84°   Visibility: 6mi
Dew Point: 64°   Wind: 25mph
Humidity: 54%   Direction: 30°NNE
Pressure: 30.06"   Gusts: NA
Location:  25.41°S, 52.42°W
Report Text: SBCA 241400Z 03022KT 9999 SCT040 28/18 Q1018
Loading
Personal Weather Stations






























Interactive Weather Map
Tropical Storm Tracking
New forecast layout! Learn more

10-Day Weather Forecast

Advertisements
Track Severe Weather on mobile